createdAt,value
2023-03-15T00:00:57.441Z,62.28
2023-03-15T00:06:18.148Z,61.88
2023-03-15T00:11:38.864Z,62.24
2023-03-15T00:16:59.461Z,61.75
2023-03-15T00:22:23.283Z,62.08
2023-03-15T00:27:44.080Z,61.63
2023-03-15T00:33:05.995Z,61.54
2023-03-15T00:38:26.939Z,61.32
2023-03-15T00:43:47.734Z,62.02
2023-03-15T00:49:08.837Z,62.06
2023-03-15T00:54:29.680Z,61.97
2023-03-15T00:59:53.205Z,61.64
2023-03-15T01:05:15.280Z,61.38
2023-03-15T01:10:35.909Z,61.17
2023-03-15T01:15:56.975Z,60.91
2023-03-15T01:21:18.327Z,61.59
2023-03-15T01:26:41.109Z,61.46
2023-03-15T01:32:02.195Z,60.78
2023-03-15T01:37:24.785Z,61.09
2023-03-15T01:42:53.693Z,61.39
2023-03-15T01:48:14.802Z,60.98
2023-03-15T01:53:36.917Z,61.37
2023-03-15T01:59:00.741Z,60.88
2023-03-15T02:04:28.484Z,61.14
2023-03-15T02:10:11.120Z,60.76
2023-03-15T02:15:33.548Z,60.16
2023-03-15T02:21:28.761Z,60.44
2023-03-15T02:26:57.480Z,60.74
2023-03-15T02:32:18.985Z,60.68
2023-03-15T02:37:39.849Z,60.46
2023-03-15T02:43:07.017Z,60.83
2023-03-15T02:48:29.365Z,60.34
2023-03-15T02:53:51.088Z,61.07
2023-03-15T02:59:13.577Z,59.81
2023-03-15T03:04:35.272Z,60.19
2023-03-15T03:09:56.620Z,60.56
2023-03-15T03:15:17.850Z,60.60
2023-03-15T03:20:39.219Z,60.72
2023-03-15T03:26:01.891Z,61.28
2023-03-15T03:31:25.918Z,61.08
2023-03-15T03:36:51.137Z,61.36
2023-03-15T03:42:21.203Z,60.91
2023-03-15T03:47:42.476Z,60.70
2023-03-15T03:53:03.314Z,60.58
2023-03-15T03:58:27.716Z,60.41
2023-03-15T04:03:53.624Z,60.76
2023-03-15T04:09:18.671Z,60.98
2023-03-15T04:14:42.526Z,60.68
2023-03-15T04:20:11.865Z,61.21
2023-03-15T04:25:35.594Z,60.22
2023-03-15T04:31:10.671Z,60.38
2023-03-15T04:36:54.841Z,60.11
2023-03-15T04:42:32.926Z,60.12
2023-03-15T04:48:12.017Z,60.16
2023-03-15T04:53:40.603Z,60.27
2023-03-15T04:59:04.492Z,60.28
2023-03-15T05:04:43.908Z,60.57
2023-03-15T05:10:17.300Z,60.26
2023-03-15T05:15:47.519Z,59.92
2023-03-15T05:21:21.476Z,60.78
2023-03-15T05:26:54.434Z,60.44
2023-03-15T05:32:27.418Z,60.79
2023-03-15T05:38:17.312Z,60.85
2023-03-15T05:44:04.309Z,60.29
2023-03-15T05:49:25.212Z,60.14
2023-03-15T05:55:03.407Z,60.27
2023-03-15T06:00:44.286Z,61.27
2023-03-15T06:06:17.852Z,61.02
2023-03-15T06:11:38.681Z,60.06
2023-03-15T06:17:00.543Z,60.62
2023-03-15T06:22:24.572Z,60.35
2023-03-15T06:27:53.100Z,60.12
2023-03-15T06:33:14.545Z,60.90
2023-03-15T06:38:35.285Z,60.44
2023-03-15T06:43:56.067Z,60.23
2023-03-15T06:49:17.346Z,60.63
2023-03-15T06:54:38.227Z,60.50
2023-03-15T06:59:59.146Z,60.52
2023-03-15T07:05:19.999Z,60.10
2023-03-15T07:10:40.695Z,60.00
2023-03-15T07:16:01.611Z,60.34
2023-03-15T07:21:22.125Z,59.77
2023-03-15T07:26:43.588Z,60.29
2023-03-15T07:32:05.065Z,60.34
2023-03-15T07:37:26.462Z,60.15
2023-03-15T07:42:47.326Z,60.04
2023-03-15T07:48:08.236Z,59.31
2023-03-15T07:53:29.228Z,59.24
2023-03-15T07:58:50.042Z,59.66
2023-03-15T08:04:10.822Z,59.03
2023-03-15T08:09:33.960Z,59.17
2023-03-15T08:14:55.068Z,59.23
2023-03-15T08:20:17.904Z,58.73
2023-03-15T08:25:41.029Z,58.51
2023-03-15T08:31:06.992Z,58.60
2023-03-15T08:36:27.993Z,58.62
2023-03-15T08:41:50.423Z,58.46
2023-03-15T08:47:11.831Z,58.12
2023-03-15T08:52:32.977Z,58.20
2023-03-15T08:57:54.646Z,57.60
2023-03-15T09:03:16.741Z,57.22
2023-03-15T09:08:37.605Z,57.03
2023-03-15T09:13:58.225Z,56.50
2023-03-15T09:19:19.191Z,56.03
2023-03-15T09:24:40.298Z,56.06
2023-03-15T09:30:01.460Z,55.85
2023-03-15T09:35:22.535Z,55.17
2023-03-15T09:40:46.179Z,55.16
2023-03-15T09:46:16.322Z,55.07
2023-03-15T09:51:48.255Z,54.85
2023-03-15T09:57:17.195Z,55.08
2023-03-15T10:02:44.062Z,54.97
2023-03-15T10:08:11.798Z,55.36
2023-03-15T10:13:42.529Z,54.65
2023-03-15T10:19:35.601Z,54.38
2023-03-15T10:25:05.227Z,54.17
2023-03-15T10:30:31.706Z,53.51
2023-03-15T10:35:58.629Z,53.82
2023-03-15T10:41:43.752Z,54.41
2023-03-15T10:47:22.097Z,53.99
2023-03-15T10:52:45.593Z,54.13
2023-03-15T10:58:21.201Z,54.24
2023-03-15T11:03:44.062Z,53.75
2023-03-15T11:09:40.772Z,53.28
2023-03-15T11:15:14.020Z,53.75
2023-03-15T11:20:38.820Z,53.06
2023-03-15T11:26:00.175Z,53.18
2023-03-15T11:31:24.357Z,53.41
2023-03-15T11:36:49.087Z,53.01
2023-03-15T11:42:25.247Z,52.90
2023-03-15T11:47:51.864Z,53.01
2023-03-15T11:53:15.926Z,53.26
2023-03-15T11:58:44.587Z,53.26
2023-03-15T12:04:33.693Z,52.96
2023-03-15T12:10:03.812Z,53.48
2023-03-15T12:15:24.981Z,53.70
2023-03-15T12:21:10.974Z,53.44
2023-03-15T12:26:39.159Z,53.73
2023-03-15T12:32:02.820Z,54.00
2023-03-15T12:37:38.925Z,53.79
2023-03-15T12:43:01.780Z,54.14
2023-03-15T12:48:23.344Z,54.03
2023-03-15T12:53:47.653Z,54.65
2023-03-15T12:59:59.123Z,55.33
2023-03-15T13:05:34.955Z,55.06
2023-03-15T13:11:23.759Z,55.16
2023-03-15T13:16:55.197Z,55.15
2023-03-15T13:22:27.206Z,55.09
2023-03-15T13:27:57.200Z,55.02
2023-03-15T13:33:18.032Z,54.84
2023-03-15T13:38:38.670Z,54.81
2023-03-15T13:44:05.626Z,55.24
2023-03-15T13:49:34.383Z,54.44
2023-03-15T13:54:56.013Z,54.60
2023-03-15T14:00:19.328Z,54.04
2023-03-15T14:05:47.592Z,54.36
2023-03-15T14:11:18.044Z,53.73
2023-03-15T14:17:02.986Z,54.08
2023-03-15T14:22:25.157Z,54.32
2023-03-15T14:27:45.987Z,55.60
2023-03-15T14:33:08.913Z,55.45
2023-03-15T14:38:36.114Z,55.46
2023-03-15T14:43:57.292Z,55.71
2023-03-15T14:49:24.006Z,55.84
2023-03-15T14:54:50.507Z,56.34
2023-03-15T15:00:16.967Z,57.13
2023-03-15T15:05:37.737Z,57.62
2023-03-15T15:10:58.836Z,58.37
2023-03-15T15:16:19.778Z,58.76
2023-03-15T15:21:42.397Z,58.88
2023-03-15T15:27:02.946Z,59.44
2023-03-15T15:32:23.792Z,60.75
2023-03-15T15:37:46.668Z,59.99
2023-03-15T15:43:11.808Z,64.42
2023-03-15T15:48:33.009Z,61.36
2023-03-15T15:53:56.862Z,60.82
2023-03-15T15:59:18.702Z,60.70
2023-03-15T16:04:42.258Z,60.52
2023-03-15T16:10:03.888Z,60.55
2023-03-15T16:15:24.472Z,60.86
2023-03-15T16:20:45.311Z,60.99
2023-03-15T16:26:06.249Z,61.33
2023-03-15T16:31:26.959Z,61.93
2023-03-15T16:36:49.720Z,61.37
2023-03-15T16:42:15.476Z,61.70
2023-03-15T16:47:36.170Z,62.10
2023-03-15T16:52:59.851Z,62.39
2023-03-15T16:58:20.583Z,61.96
2023-03-15T17:03:41.446Z,61.77
2023-03-15T17:09:14.188Z,62.75
2023-03-15T17:14:35.761Z,62.16
2023-03-15T17:19:57.199Z,62.33
2023-03-15T17:25:18.234Z,62.86
2023-03-15T17:30:39.094Z,62.66
2023-03-15T17:36:00.056Z,63.16
2023-03-15T17:41:23.380Z,63.23
2023-03-15T17:46:44.273Z,66.64
2023-03-15T17:52:10.812Z,63.77
2023-03-15T17:57:31.495Z,63.33
2023-03-15T18:02:56.055Z,63.80
2023-03-15T18:08:20.381Z,63.40
2023-03-15T18:13:41.245Z,62.81
2023-03-15T18:19:02.040Z,62.74
2023-03-15T18:24:22.627Z,62.64
2023-03-15T18:29:43.345Z,62.64
2023-03-15T18:35:04.724Z,62.67
2023-03-15T18:40:29.257Z,62.46
2023-03-15T18:45:50.580Z,62.29
2023-03-15T18:51:12.729Z,62.21
2023-03-15T18:56:34.793Z,61.75
2023-03-15T19:01:55.463Z,62.26
2023-03-15T19:07:16.287Z,61.96
2023-03-15T19:12:37.567Z,62.15
2023-03-15T19:17:58.471Z,62.18
2023-03-15T19:23:20.745Z,62.82
2023-03-15T19:28:41.600Z,62.58
2023-03-15T19:34:02.644Z,62.91
2023-03-15T19:39:23.446Z,61.99
2023-03-15T19:44:44.236Z,61.74
2023-03-15T19:50:05.834Z,61.83
2023-03-15T19:55:31.589Z,61.75
2023-03-15T20:00:57.169Z,62.39
2023-03-15T20:06:18.265Z,61.75
2023-03-15T20:11:38.946Z,61.50
2023-03-15T20:16:59.688Z,61.05
2023-03-15T20:22:20.828Z,60.88
2023-03-15T20:27:42.035Z,60.61
2023-03-15T20:33:02.645Z,61.31
2023-03-15T20:38:23.344Z,60.70
2023-03-15T20:43:43.939Z,60.57
2023-03-15T20:49:04.803Z,60.26
2023-03-15T20:54:25.665Z,60.40
2023-03-15T20:59:46.829Z,60.59
2023-03-15T21:05:08.886Z,61.24
2023-03-15T21:10:29.845Z,60.49
2023-03-15T21:15:53.290Z,61.11
2023-03-15T21:21:14.390Z,61.20
2023-03-15T21:26:35.859Z,60.93
2023-03-15T21:31:56.717Z,60.55
2023-03-15T21:37:17.497Z,60.80
2023-03-15T21:42:39.183Z,61.36
2023-03-15T21:48:00.011Z,61.47
2023-03-15T21:53:21.790Z,61.57
2023-03-15T21:58:42.678Z,61.90
2023-03-15T22:04:03.672Z,61.91
2023-03-15T22:09:24.249Z,61.50
2023-03-15T22:14:47.429Z,61.21
2023-03-15T22:20:16.618Z,61.42
2023-03-15T22:25:39.101Z,61.14
2023-03-15T22:30:59.855Z,61.22
2023-03-15T22:36:20.791Z,61.27
2023-03-15T22:41:41.697Z,61.29
2023-03-15T22:47:02.453Z,61.29
2023-03-15T22:52:23.039Z,61.72
2023-03-15T22:57:43.684Z,61.52
2023-03-15T23:03:04.538Z,61.68
2023-03-15T23:08:25.371Z,61.65
2023-03-15T23:13:48.818Z,61.57
2023-03-15T23:19:10.397Z,61.38
2023-03-15T23:24:34.062Z,61.31
2023-03-15T23:29:55.437Z,61.20
2023-03-15T23:35:16.412Z,61.21
2023-03-15T23:40:37.431Z,61.21
2023-03-15T23:46:00.155Z,60.79
2023-03-15T23:51:22.353Z,61.29
2023-03-15T23:56:43.053Z,60.68
